Time;durP1;ratioP1;P1;durP2;ratioP2;P2;SDS_P1;SDS_P2;PMS_P1;PMS_P2;Temp;Humidity;BMP_temperature;BMP_pressure;BME280_temperature;BME280_humidity;BME280_pressure;Samples;Min_cycle;Max_cycle;Signal;HPM_P1;HPM_P2
2022/04/19 00:01:18;;;;;;;12.88;7.80;;;;;;;8.30;55.12;99581.53;4465303;32;34024;-64
2022/04/19 00:03:46;;;;;;;13.80;8.60;;;;;;;8.31;55.02;99574.69;4465330;32;33746;-62
2022/04/19 00:06:13;;;;;;;12.85;8.02;;;;;;;8.41;55.06;99567.50;4454225;32;34364;-62
2022/04/19 00:08:41;;;;;;;13.48;8.07;;;;;;;8.79;53.50;99572.78;4464254;32;33768;-62
2022/04/19 00:11:08;;;;;;;13.35;8.27;;;;;;;7.33;58.31;99573.06;4471734;32;34030;-63
2022/04/19 00:13:36;;;;;;;13.35;8.20;;;;;;;7.00;60.07;99576.44;4471486;32;33363;-63
2022/04/19 00:16:04;;;;;;;13.18;8.48;;;;;;;6.70;60.98;99573.03;4476317;32;33675;-62
2022/04/19 00:18:32;;;;;;;15.57;8.05;;;;;;;6.94;60.55;99565.81;4468215;32;34347;-63
2022/04/19 00:21:00;;;;;;;12.40;7.85;;;;;;;7.78;57.42;99558.22;4473240;32;34221;-62
2022/04/19 00:23:28;;;;;;;11.40;7.72;;;;;;;8.10;56.38;99562.47;4459378;32;33354;-61
2022/04/19 00:25:56;;;;;;;11.57;7.95;;;;;;;8.22;55.96;99562.19;4466536;32;33784;-62
2022/04/19 00:28:23;;;;;;;13.40;8.15;;;;;;;7.74;57.72;99553.72;4471245;32;34048;-64
2022/04/19 00:30:57;;;;;;;13.35;7.78;;;;;;;8.00;57.03;99557.66;4470951;32;33965;-63
2022/04/19 00:33:26;;;;;;;11.38;7.07;;;;;;;8.36;55.88;99563.75;4460406;32;33417;-63
2022/04/19 00:35:53;;;;;;;11.38;7.03;;;;;;;7.99;56.78;99551.59;4458044;32;33980;-64
2022/04/19 00:38:22;;;;;;;11.73;7.40;;;;;;;8.42;55.57;99552.88;4473582;32;34778;-61
2022/04/19 00:40:50;;;;;;;12.15;7.53;;;;;;;8.63;54.59;99547.88;4476120;32;34169;-63
2022/04/19 00:43:18;;;;;;;11.55;7.47;;;;;;;8.14;55.90;99545.47;4477717;32;34284;-64
2022/04/19 00:45:46;;;;;;;10.32;6.97;;;;;;;8.06;56.28;99542.50;4451838;32;33864;-62
2022/04/19 00:48:13;;;;;;;13.10;7.15;;;;;;;8.38;55.48;99536.37;4463924;32;34013;-61
2022/04/19 00:50:41;;;;;;;11.63;7.20;;;;;;;8.74;54.78;99540.66;4464098;32;34194;-62
2022/04/19 00:53:11;;;;;;;13.52;7.95;;;;;;;8.96;54.29;99527.97;4436875;32;34780;-62
2022/04/19 00:55:40;;;;;;;14.25;7.68;;;;;;;8.35;55.80;99536.19;4460091;32;33748;-62
2022/04/19 00:58:08;;;;;;;12.90;6.68;;;;;;;8.41;55.83;99535.63;4454261;32;34568;-62
2022/04/19 01:00:36;;;;;;;11.27;7.25;;;;;;;8.48;55.31;99523.91;4440356;32;33336;-62
2022/04/19 01:03:04;;;;;;;11.90;7.30;;;;;;;8.49;55.39;99528.28;4466684;32;34123;-62
2022/04/19 01:05:34;;;;;;;12.05;7.15;;;;;;;8.50;55.19;99530.94;4461637;32;34065;-62
2022/04/19 01:08:02;;;;;;;11.98;6.78;;;;;;;8.45;55.38;99522.94;4467565;32;34593;-62
2022/04/19 01:10:30;;;;;;;12.00;7.12;;;;;;;8.49;55.49;99521.41;4480242;32;34657;-64
2022/04/19 01:13:17;;;;;;;10.13;5.72;;;;;;;8.33;55.83;99516.28;4481402;32;33422;-63
2022/04/19 01:15:49;;;;;;;12.27;6.65;;;;;;;8.57;54.90;99521.78;4480020;32;33525;-62
2022/04/19 01:18:22;;;;;;;12.27;6.43;;;;;;;7.45;58.49;99519.56;4470075;32;34924;-62
2022/04/19 01:20:52;;;;;;;13.25;6.97;;;;;;;6.91;60.67;99518.41;4479875;32;33796;-64
2022/04/19 01:23:20;;;;;;;12.20;6.93;;;;;;;7.46;58.79;99522.25;4468361;32;33543;-62
2022/04/19 01:25:48;;;;;;;10.15;6.55;;;;;;;7.02;59.65;99522.44;4479207;32;33917;-64
2022/04/19 01:28:19;;;;;;;11.80;7.55;;;;;;;7.16;59.78;99516.34;4482408;32;33863;-61
2022/04/19 01:30:54;;;;;;;11.50;7.50;;;;;;;7.00;60.78;99518.91;4479470;32;33614;-62
2022/04/19 01:33:23;;;;;;;10.80;6.57;;;;;;;7.43;59.45;99516.03;4480376;32;33660;-62
2022/04/19 01:35:51;;;;;;;11.07;6.53;;;;;;;7.72;58.63;99516.66;4484813;32;33424;-62
2022/04/19 01:38:18;;;;;;;10.05;5.70;;;;;;;7.94;57.93;99498.91;4483308;32;33926;-62
2022/04/19 01:40:46;;;;;;;10.48;6.50;;;;;;;7.89;58.12;99513.25;4483107;32;34840;-62
2022/04/19 01:43:15;;;;;;;10.65;6.70;;;;;;;8.06;57.45;99502.09;4483439;32;32112;-62
2022/04/19 01:45:42;;;;;;;10.70;6.57;;;;;;;7.76;58.50;99497.97;4483269;32;34047;-62
2022/04/19 01:48:11;;;;;;;11.93;7.28;;;;;;;7.88;58.26;99502.06;4482633;32;33770;-62
2022/04/19 01:50:39;;;;;;;11.63;6.65;;;;;;;8.08;57.47;99491.84;4483058;32;34066;-62
2022/04/19 01:53:06;;;;;;;11.85;7.35;;;;;;;8.00;57.40;99488.03;4482134;32;34552;-62
2022/04/19 01:55:34;;;;;;;13.85;7.30;;;;;;;7.95;57.31;99487.78;4483540;32;33762;-62
2022/04/19 01:58:02;;;;;;;11.63;7.05;;;;;;;8.01;57.11;99488.06;4481206;32;34054;-62
2022/04/19 02:00:30;;;;;;;11.25;7.20;;;;;;;6.86;61.50;99488.16;4467632;32;34851;-62
2022/04/19 02:02:58;;;;;;;14.65;8.00;;;;;;;7.78;58.55;99478.31;4481514;26;33287;-83
2022/04/19 02:05:41;;;;;;;15.65;8.25;;;;;;;6.69;61.99;99488.91;4491480;26;33942;-60
2022/04/19 02:08:09;;;;;;;14.75;9.65;;;;;;;7.14;61.31;99484.47;4436173;32;97148;-59
2022/04/19 02:10:37;;;;;;;14.40;8.70;;;;;;;6.79;62.50;99483.47;4427401;32;32630;-60
2022/04/19 02:13:05;;;;;;;11.93;7.80;;;;;;;7.47;59.93;99476.72;4431677;32;34145;-60
2022/04/19 02:15:36;;;;;;;14.48;8.45;;;;;;;6.85;61.86;99483.78;4429063;32;34103;-59
2022/04/19 02:18:05;;;;;;;13.65;9.20;;;;;;;7.61;59.55;99478.34;4449853;32;34539;-60
2022/04/19 02:20:33;;;;;;;16.42;9.27;;;;;;;7.90;58.27;99478.94;4424283;32;34333;-60
2022/04/19 02:23:04;;;;;;;15.07;9.30;;;;;;;7.86;58.48;99479.56;4446819;32;33692;-60
2022/04/19 02:25:32;;;;;;;13.25;7.93;;;;;;;8.01;57.67;99470.00;4445939;32;34740;-60
2022/04/19 02:28:00;;;;;;;13.68;8.23;;;;;;;8.35;56.08;99469.09;4428536;32;35708;-60
2022/04/19 02:30:28;;;;;;;14.27;8.23;;;;;;;8.44;55.27;99466.09;4405389;32;33462;-60
2022/04/19 02:32:57;;;;;;;12.23;7.00;;;;;;;8.44;55.02;99467.00;4422390;32;31690;-60
2022/04/19 02:35:27;;;;;;;11.12;6.95;;;;;;;6.58;60.60;99456.53;4429177;32;32473;-60
2022/04/19 02:37:56;;;;;;;13.35;7.90;;;;;;;5.80;64.41;99471.88;4449283;32;34601;-60
2022/04/19 02:40:25;;;;;;;12.37;7.87;;;;;;;5.39;67.29;99479.69;4442988;32;34094;-59
2022/04/19 02:42:55;;;;;;;11.98;8.30;;;;;;;5.16;68.74;99474.06;4443870;32;33488;-59
2022/04/19 02:45:24;;;;;;;14.35;8.23;;;;;;;5.37;68.29;99471.00;4434499;32;34114;-59
2022/04/19 02:48:05;;;;;;;14.27;8.20;;;;;;;5.38;67.87;99470.22;4448418;32;32407;-60
2022/04/19 02:50:40;;;;;;;13.27;8.45;;;;;;;6.60;63.60;99463.53;4435561;32;33348;-60
2022/04/19 02:53:08;;;;;;;16.25;8.70;;;;;;;6.33;63.91;99465.47;4424005;32;34757;-59
2022/04/19 02:55:36;;;;;;;13.40;8.95;;;;;;;7.68;59.08;99464.94;4447370;32;33617;-59
2022/04/19 02:58:04;;;;;;;13.38;7.93;;;;;;;7.88;57.91;99477.97;4449160;32;34573;-59
2022/04/19 03:00:31;;;;;;;13.23;8.35;;;;;;;7.68;58.26;99467.50;4447917;32;33454;-59
2022/04/19 03:02:59;;;;;;;11.50;6.93;;;;;;;7.74;57.80;99476.38;4452047;32;33717;-59
2022/04/19 03:05:26;;;;;;;15.43;8.05;;;;;;;7.28;58.49;99480.94;4453007;32;34442;-59
2022/04/19 03:07:53;;;;;;;14.27;8.07;;;;;;;6.32;61.79;99481.72;4451859;32;33808;-59
2022/04/19 03:10:21;;;;;;;13.98;8.18;;;;;;;5.55;65.43;99487.53;4451846;32;34864;-60
2022/04/19 03:12:51;;;;;;;14.70;8.50;;;;;;;5.75;64.52;99482.66;4443928;32;34417;-59
2022/04/19 03:15:20;;;;;;;15.60;9.00;;;;;;;5.46;65.91;99484.41;4429452;32;33055;-59
2022/04/19 03:17:49;;;;;;;17.35;9.82;;;;;;;5.02;67.34;99485.16;4448660;32;32242;-59
2022/04/19 03:20:16;;;;;;;15.13;9.35;;;;;;;4.79;68.53;99487.22;4449367;32;33941;-59
2022/04/19 03:28:18;;;;;;;16.58;10.75;;;;;;;3.98;72.78;99487.12;4449984;32;33529;-59
2022/04/19 03:30:46;;;;;;;19.12;10.10;;;;;;;4.06;72.22;99479.16;4421629;32;35401;-59
2022/04/19 03:33:16;;;;;;;16.85;10.07;;;;;;;3.83;73.50;99484.44;4446279;32;33654;-59
2022/04/19 03:35:43;;;;;;;19.67;11.00;;;;;;;3.51;75.12;99475.50;4451154;32;33899;-59
2022/04/19 03:38:11;;;;;;;18.80;10.88;;;;;;;3.52;75.14;99482.41;4450352;32;34485;-59
2022/04/19 03:40:39;;;;;;;18.55;10.68;;;;;;;3.62;74.63;99478.78;4449807;32;33080;-59
2022/04/19 03:43:07;;;;;;;14.87;10.23;;;;;;;4.53;71.60;99478.75;4451374;32;33794;-59
2022/04/19 03:45:35;;;;;;;17.73;10.18;;;;;;;5.06;68.49;99481.97;4451265;32;34599;-59
2022/04/19 03:48:04;;;;;;;16.87;9.30;;;;;;;5.53;66.86;99470.25;4452982;32;34679;-59
2022/04/19 03:50:32;;;;;;;14.70;9.45;;;;;;;5.99;65.13;99468.72;4451469;32;33960;-59
2022/04/19 03:53:00;;;;;;;18.75;9.95;;;;;;;6.35;63.87;99463.88;4450573;32;33320;-59
2022/04/19 03:55:27;;;;;;;16.42;9.85;;;;;;;6.25;63.36;99466.72;4451892;32;34628;-59
2022/04/19 03:57:55;;;;;;;18.73;11.32;;;;;;;6.08;63.69;99461.53;4451638;32;33923;-60
2022/04/19 04:00:22;;;;;;;17.20;10.50;;;;;;;5.80;64.24;99471.00;4449669;32;35057;-59
2022/04/19 04:02:50;;;;;;;18.87;10.32;;;;;;;6.03;64.02;99459.50;4451596;32;33777;-59
2022/04/19 04:05:19;;;;;;;15.70;9.63;;;;;;;6.60;61.96;99457.50;4452115;32;33920;-59
2022/04/19 04:07:46;;;;;;;14.90;8.38;;;;;;;6.83;60.59;99464.78;4452283;32;33728;-60
2022/04/19 04:10:15;;;;;;;13.60;9.15;;;;;;;7.39;58.58;99457.41;4452587;32;34238;-60
2022/04/19 04:12:43;;;;;;;15.23;8.77;;;;;;;7.59;57.43;99456.75;4436310;32;34334;-59
2022/04/19 04:15:10;;;;;;;14.93;9.52;;;;;;;7.25;58.41;99460.16;4445234;32;34697;-59
2022/04/19 04:17:38;;;;;;;16.90;9.77;;;;;;;7.07;58.73;99459.22;4446888;32;34025;-59
2022/04/19 04:20:06;;;;;;;18.40;8.98;;;;;;;6.77;59.46;99461.88;4451244;32;32715;-60
2022/04/19 04:22:34;;;;;;;14.73;8.63;;;;;;;6.28;61.97;99456.62;4447437;32;33462;-60
2022/04/19 04:25:02;;;;;;;20.00;9.95;;;;;;;6.35;61.12;99461.28;4450060;32;33596;-59
2022/04/19 04:27:30;;;;;;;21.67;11.12;;;;;;;6.28;61.73;99472.06;4450755;32;33625;-59
2022/04/19 04:29:59;;;;;;;23.30;12.10;;;;;;;6.40;61.28;99472.75;4448488;32;34042;-59
2022/04/19 04:32:27;;;;;;;19.87;11.68;;;;;;;5.13;65.27;99479.00;4444745;32;34422;-59
2022/04/19 04:34:54;;;;;;;18.98;10.93;;;;;;;5.10;65.81;99476.28;4417935;32;34079;-60
2022/04/19 04:37:22;;;;;;;17.67;10.27;;;;;;;4.78;66.58;99475.16;4443831;32;34675;-59
2022/04/19 04:39:51;;;;;;;18.25;10.52;;;;;;;5.66;64.00;99471.06;4450628;32;33951;-59
2022/04/19 04:42:21;;;;;;;17.75;10.07;;;;;;;6.07;62.79;99482.00;4437562;32;35566;-59
2022/04/19 04:44:48;;;;;;;15.38;9.25;;;;;;;6.88;59.67;99468.50;4446031;32;33698;-59
2022/04/19 04:50:02;;;;;;;14.43;8.40;;;;;;;7.40;57.23;99469.50;4450612;32;34540;-60
2022/04/19 04:52:30;;;;;;;14.25;8.05;;;;;;;7.55;56.92;99469.41;4446241;32;35163;-59
2022/04/19 04:54:58;;;;;;;15.25;8.02;;;;;;;7.70;55.86;99467.59;4450460;32;32432;-59
2022/04/19 04:57:26;;;;;;;16.12;8.77;;;;;;;7.63;55.55;99469.00;4451327;32;33935;-59
2022/04/19 04:59:54;;;;;;;19.80;10.57;;;;;;;5.83;61.43;99484.00;4446844;32;34181;-59
2022/04/19 05:02:23;;;;;;;16.08;10.05;;;;;;;4.93;65.54;99480.38;4443293;32;34324;-59
2022/04/19 05:04:51;;;;;;;10.38;6.93;;;;;;;4.53;67.79;99483.00;4433969;32;33070;-59
2022/04/19 05:07:19;;;;;;;16.87;7.93;;;;;;;4.10;69.36;99486.25;4438103;32;32332;-59
2022/04/19 05:09:54;;;;;;;15.27;8.10;;;;;;;4.26;68.95;99488.13;4446613;32;33997;-59
2022/04/19 05:12:21;;;;;;;14.43;7.97;;;;;;;4.24;69.42;99478.56;4433841;32;32060;-59
2022/04/19 05:14:51;;;;;;;15.30;8.40;;;;;;;4.47;68.54;99478.34;4446041;32;33995;-59
2022/04/19 05:17:19;;;;;;;18.75;8.82;;;;;;;4.61;68.21;99486.03;4436560;32;33906;-59
2022/04/19 05:19:46;;;;;;;14.13;7.18;;;;;;;4.78;66.87;99485.41;4443185;32;33834;-60
2022/04/19 05:22:14;;;;;;;12.43;6.32;;;;;;;5.22;65.41;99489.84;4450375;32;34297;-60
2022/04/19 05:24:42;;;;;;;17.35;7.50;;;;;;;4.84;66.10;99475.53;4449390;32;33462;-60
2022/04/19 05:27:11;;;;;;;12.25;7.60;;;;;;;5.10;66.04;99489.09;4446410;32;34687;-59
2022/04/19 05:29:39;;;;;;;13.23;7.40;;;;;;;6.08;61.81;99489.81;4448387;32;34199;-59
2022/04/19 05:32:07;;;;;;;15.07;8.20;;;;;;;5.20;64.68;99486.28;4452849;32;32063;-59
2022/04/19 05:34:36;;;;;;;14.35;8.18;;;;;;;5.61;64.17;99492.16;4436614;32;33682;-59
2022/04/19 05:37:04;;;;;;;14.70;9.15;;;;;;;5.54;63.89;99490.00;4447567;32;33908;-59
2022/04/19 05:39:31;;;;;;;15.73;7.80;;;;;;;5.27;64.88;99493.59;4452013;32;33727;-59
2022/04/19 05:42:00;;;;;;;12.95;7.10;;;;;;;5.36;64.79;99487.22;4445775;32;33633;-59
2022/04/19 05:44:28;;;;;;;12.68;7.70;;;;;;;6.55;61.34;99487.25;4445766;32;33582;-60
2022/04/19 05:46:55;;;;;;;12.00;7.37;;;;;;;7.19;58.97;99482.16;4437065;32;31895;-59
2022/04/19 05:49:23;;;;;;;14.77;6.93;;;;;;;7.26;58.09;99482.56;4447736;32;34196;-60
2022/04/19 05:51:51;;;;;;;12.85;7.68;;;;;;;7.26;57.99;99487.72;4452385;32;33758;-60
2022/04/19 05:54:20;;;;;;;13.50;7.20;;;;;;;7.35;57.77;99486.41;4448670;32;33599;-60
2022/04/19 05:56:55;;;;;;;15.77;7.68;;;;;;;7.71;56.91;99481.38;4451830;32;32495;-59
2022/04/19 05:59:22;;;;;;;13.27;8.45;;;;;;;7.83;56.57;99476.84;4446195;32;34797;-60
2022/04/19 06:04:52;;;;;;;13.70;7.55;;;;;;;7.93;56.62;99484.22;4451348;32;32191;-60
2022/04/19 06:07:21;;;;;;;15.25;8.40;;;;;;;8.77;54.92;99484.88;4453046;32;33770;-59
2022/04/19 06:09:55;;;;;;;15.10;8.68;;;;;;;8.84;53.53;99481.75;4450465;32;33958;-60
2022/04/19 06:12:22;;;;;;;14.05;8.68;;;;;;;9.01;53.40;99485.13;4447397;32;33868;-60
2022/04/19 06:14:50;;;;;;;31.30;14.18;;;;;;;9.31;52.51;99478.69;4448000;32;33473;-60
2022/04/19 06:17:18;;;;;;;46.17;20.52;;;;;;;9.31;52.98;99483.84;4449583;32;33880;-60
2022/04/19 06:19:46;;;;;;;28.50;13.65;;;;;;;9.25;52.83;99480.19;4430317;32;34209;-59
2022/04/19 06:22:13;;;;;;;18.70;9.35;;;;;;;9.60;52.70;99485.13;4449064;32;33842;-59
2022/04/19 06:24:43;;;;;;;20.17;9.32;;;;;;;9.44;52.83;99471.56;4451655;32;33777;-59
2022/04/19 06:27:11;;;;;;;13.23;8.30;;;;;;;9.31;53.57;99484.75;4451240;32;34749;-59
2022/04/19 06:29:38;;;;;;;15.02;7.40;;;;;;;9.47;53.41;99473.38;4433945;32;33448;-59
2022/04/19 06:32:07;;;;;;;13.68;7.22;;;;;;;9.65;52.39;99466.41;4449121;32;34418;-59
2022/04/19 06:34:36;;;;;;;11.77;6.82;;;;;;;9.48;52.71;99464.78;4450809;32;33837;-59
2022/04/19 06:37:04;;;;;;;11.55;7.07;;;;;;;9.70;51.52;99460.59;4447242;32;34746;-59
2022/04/19 06:39:32;;;;;;;15.20;6.12;;;;;;;9.96;51.77;99448.72;4446647;32;33795;-59
2022/04/19 06:42:00;;;;;;;9.85;6.55;;;;;;;10.03;50.53;99448.16;4455312;32;33471;-59
2022/04/19 06:44:28;;;;;;;11.95;6.65;;;;;;;9.10;53.63;99470.84;4436355;32;33685;-60
2022/04/19 06:46:59;;;;;;;9.75;6.90;;;;;;;8.33;56.45;99467.25;4448992;32;33929;-60
2022/04/19 06:49:26;;;;;;;11.18;6.82;;;;;;;8.48;56.11;99464.53;4451880;32;34194;-60
2022/04/19 06:51:54;;;;;;;11.93;7.12;;;;;;;9.45;53.28;99478.50;4450732;32;33763;-59
2022/04/19 06:54:22;;;;;;;11.43;6.22;;;;;;;9.93;51.60;99459.84;4450641;32;33836;-59
2022/04/19 06:56:50;;;;;;;10.77;6.78;;;;;;;9.92;51.48;99458.06;4451526;32;33691;-60
2022/04/19 06:59:17;;;;;;;10.15;6.43;;;;;;;9.74;51.40;99465.94;4445086;32;34838;-60
2022/04/19 07:01:45;;;;;;;12.00;6.15;;;;;;;10.53;50.01;99456.25;4448209;32;33774;-60
2022/04/19 07:04:14;;;;;;;10.77;6.70;;;;;;;10.59;48.93;99451.28;4444249;32;33596;-59
2022/04/19 07:06:44;;;;;;;11.82;7.00;;;;;;;10.35;49.49;99446.94;4435346;32;33330;-59
2022/04/19 07:09:12;;;;;;;14.35;7.45;;;;;;;10.81;48.86;99453.88;4443305;32;34907;-59
2022/04/19 07:11:40;;;;;;;10.07;6.05;;;;;;;10.81;48.82;99453.88;4450475;32;33735;-63
2022/04/19 07:14:07;;;;;;;10.00;6.68;;;;;;;9.71;50.99;99460.63;4450397;32;34738;-62
2022/04/19 07:16:38;;;;;;;11.95;6.78;;;;;;;9.97;49.97;99459.16;4433592;32;32858;-59
2022/04/19 07:19:06;;;;;;;9.50;6.32;;;;;;;9.76;51.61;99461.72;4444749;32;33653;-62
2022/04/19 07:27:24;;;;;;;15.07;7.47;;;;;;;9.82;49.16;99448.16;4451160;32;32371;-60
2022/04/19 07:29:51;;;;;;;11.65;6.95;;;;;;;9.80;51.43;99444.63;4435302;32;33590;-60
2022/04/19 07:32:19;;;;;;;15.07;6.75;;;;;;;9.00;49.75;99459.22;4446268;32;34131;-62
2022/04/19 07:34:49;;;;;;;9.73;5.97;;;;;;;10.21;48.76;99448.03;4436993;32;34654;-62
2022/04/19 07:37:17;;;;;;;9.27;5.53;;;;;;;9.71;48.58;99459.75;4451937;32;34151;-59
2022/04/19 07:39:45;;;;;;;9.82;5.72;;;;;;;9.94;49.79;99448.66;4448943;32;34178;-59
2022/04/19 07:42:13;;;;;;;9.18;6.22;;;;;;;9.98;47.53;99450.53;4420132;32;32979;-60
2022/04/19 07:44:44;;;;;;;9.00;5.80;;;;;;;9.76;50.12;99460.84;4434569;32;33574;-61
2022/04/19 07:47:14;;;;;;;9.95;4.80;;;;;;;10.46;47.27;99449.03;4442869;32;34101;-59
2022/04/19 07:49:42;;;;;;;8.25;5.20;;;;;;;11.83;44.57;99443.69;4448156;32;34280;-59
2022/04/19 07:52:10;;;;;;;9.68;5.12;;;;;;;11.31;44.02;99447.94;4450236;32;33827;-59
2022/04/19 07:54:37;;;;;;;8.45;5.32;;;;;;;10.98;45.63;99445.88;4438216;32;34701;-58
2022/04/19 07:57:05;;;;;;;7.82;5.00;;;;;;;12.15;42.24;99440.47;4432833;32;33323;-60
2022/04/19 07:59:33;;;;;;;8.07;4.87;;;;;;;13.71;39.38;99437.25;4450297;32;34329;-60
2022/04/19 08:02:02;;;;;;;6.95;4.85;;;;;;;14.63;37.89;99438.66;4446911;32;34392;-59
2022/04/19 08:04:30;;;;;;;8.35;4.70;;;;;;;15.85;35.75;99435.03;4433152;32;34620;-60
2022/04/19 08:07:02;;;;;;;8.50;5.15;;;;;;;14.79;34.98;99438.16;4444451;32;33756;-60
2022/04/19 08:09:31;;;;;;;9.85;4.70;;;;;;;14.46;36.00;99444.31;4444669;32;33499;-60
2022/04/19 08:11:59;;;;;;;9.95;4.80;;;;;;;16.27;33.71;99436.63;4445728;32;34857;-60
2022/04/19 08:14:27;;;;;;;8.50;4.28;;;;;;;16.34;34.15;99435.00;4444834;32;33701;-60
2022/04/19 08:16:55;;;;;;;7.75;4.22;;;;;;;16.58;33.71;99438.84;4450464;32;33686;-60
2022/04/19 08:19:22;;;;;;;7.65;4.85;;;;;;;17.56;32.02;99432.25;4450678;32;34818;-63
2022/04/19 08:21:51;;;;;;;7.62;4.57;;;;;;;17.84;29.35;99432.56;4446913;32;34119;-60
2022/04/19 08:24:20;;;;;;;6.75;4.75;;;;;;;18.07;29.32;99432.78;4448340;32;33798;-60
2022/04/19 08:26:48;;;;;;;8.05;4.68;;;;;;;17.82;30.22;99431.63;4442988;32;33865;-60
2022/04/19 08:29:15;;;;;;;7.30;4.93;;;;;;;18.69;28.97;99428.84;4446910;32;34847;-60
2022/04/19 08:31:43;;;;;;;7.10;4.97;;;;;;;17.61;30.43;99429.69;4446040;32;33214;-60
2022/04/19 08:34:12;;;;;;;8.25;4.40;;;;;;;17.61;30.66;99421.81;4443360;32;33648;-62
2022/04/19 08:36:42;;;;;;;9.55;4.35;;;;;;;17.45;30.20;99429.50;4446883;32;34164;-60
2022/04/19 08:39:10;;;;;;;8.75;4.53;;;;;;;17.14;30.22;99432.66;4441285;32;33698;-62
2022/04/19 08:41:40;;;;;;;6.05;4.20;;;;;;;15.80;30.99;99418.44;4448806;32;33734;-60
2022/04/19 08:44:08;;;;;;;7.25;4.30;;;;;;;15.22;33.33;99431.25;4426168;32;34650;-62
2022/04/19 08:46:39;;;;;;;7.07;4.78;;;;;;;16.51;31.81;99422.16;4449439;32;34778;-61
2022/04/19 08:49:09;;;;;;;5.20;3.80;;;;;;;17.19;30.44;99430.94;4452595;32;34150;-61
2022/04/19 08:51:39;;;;;;;9.40;4.37;;;;;;;16.66;31.13;99408.44;4446363;32;33358;-63
2022/04/19 08:59:41;;;;;;;7.78;4.68;;;;;;;16.00;33.05;99413.53;4433473;32;34858;-60
2022/04/19 09:02:19;;;;;;;7.45;4.97;;;;;;;16.08;32.35;99406.69;4446207;32;34384;-61
2022/04/19 09:04:48;;;;;;;9.05;4.35;;;;;;;16.05;30.58;99406.66;4451458;32;34001;-60
2022/04/19 09:07:17;;;;;;;7.30;4.57;;;;;;;16.01;31.07;99403.97;4449760;32;33624;-61
2022/04/19 09:10:01;;;;;;;8.13;4.85;;;;;;;15.32;32.67;99408.81;4436335;32;34289;-63
2022/04/19 09:12:29;;;;;;;7.18;4.35;;;;;;;14.27;33.91;99409.13;4427015;32;31969;-61
2022/04/19 09:15:09;;;;;;;6.90;4.37;;;;;;;16.07;32.43;99393.59;4453467;32;33567;-62
2022/04/19 09:17:40;;;;;;;6.53;4.40;;;;;;;15.17;32.83;99408.50;4445292;32;33674;-60
2022/04/19 09:20:18;;;;;;;9.40;5.05;;;;;;;15.48;31.88;99404.75;4450327;32;34413;-59
2022/04/19 09:22:50;;;;;;;8.23;4.65;;;;;;;15.23;32.31;99406.03;4453176;32;34127;-62
2022/04/19 09:25:24;;;;;;;7.45;4.57;;;;;;;14.83;32.40;99403.47;4447379;32;32817;-62
2022/04/19 09:27:54;;;;;;;7.28;4.40;;;;;;;15.06;31.66;99401.34;4449231;32;34467;-61
2022/04/19 09:30:27;;;;;;;5.80;4.03;;;;;;;15.58;30.59;99397.97;4455083;32;33943;-61
2022/04/19 09:33:03;;;;;;;6.37;4.68;;;;;;;15.20;32.06;99400.72;4450863;32;33673;-60
2022/04/19 09:35:43;;;;;;;6.55;4.50;;;;;;;15.37;32.96;99399.31;4447808;32;33938;-62
2022/04/19 09:38:12;;;;;;;7.93;4.72;;;;;;;14.68;33.45;99393.59;4450117;32;33863;-62
2022/04/19 09:40:47;;;;;;;9.82;4.37;;;;;;;15.25;32.37;99392.16;4448109;32;34127;-60
2022/04/19 09:43:35;;;;;;;7.72;4.53;;;;;;;15.53;31.92;99396.16;4450681;32;33706;-60
2022/04/19 09:46:04;;;;;;;7.47;4.62;;;;;;;16.41;29.89;99399.37;4444343;32;34549;-60
2022/04/19 09:48:34;;;;;;;7.10;4.68;;;;;;;16.19;29.97;99399.03;4433857;32;33492;-61
2022/04/19 09:51:09;;;;;;;7.40;4.78;;;;;;;15.84;30.07;99391.53;4436393;32;33725;-60
2022/04/19 09:53:47;;;;;;;8.13;4.70;;;;;;;15.77;29.63;99394.88;4445273;32;34312;-59
2022/04/19 09:56:17;;;;;;;9.00;5.15;;;;;;;15.95;29.96;99383.84;4435768;32;33784;-61
2022/04/19 09:59:05;;;;;;;6.70;4.95;;;;;;;14.94;30.56;99398.47;4448317;32;34514;-61
2022/04/19 10:09:53;;;;;;;8.57;4.57;;;;;;;15.00;30.10;99389.91;4438560;32;33736;-60
2022/04/19 10:12:20;;;;;;;10.52;4.60;;;;;;;14.87;31.50;99387.06;4440074;32;34320;-60
2022/04/19 10:14:49;;;;;;;7.68;4.57;;;;;;;15.02;31.80;99390.81;4411466;32;33524;-62
2022/04/19 10:17:17;;;;;;;7.70;4.70;;;;;;;15.16;31.42;99388.47;4435587;32;32069;-63
2022/04/19 10:19:49;;;;;;;7.10;5.00;;;;;;;14.44;32.51;99393.03;4451509;32;33866;-61
2022/04/19 10:22:17;;;;;;;7.32;4.68;;;;;;;14.84;31.83;99388.72;4416511;32;33986;-61
2022/04/19 10:24:45;;;;;;;9.20;4.82;;;;;;;14.43;31.93;99384.34;4450880;32;33253;-62
2022/04/19 10:27:13;;;;;;;7.22;5.07;;;;;;;14.84;31.62;99378.28;4444913;32;34057;-62
2022/04/19 10:29:43;;;;;;;8.88;5.47;;;;;;;14.38;32.13;99385.94;4452902;32;33617;-61
2022/04/19 10:32:11;;;;;;;8.27;5.28;;;;;;;15.38;30.84;99375.00;4441677;32;34838;-64
2022/04/19 10:34:43;;;;;;;9.77;5.22;;;;;;;14.89;31.58;99379.25;4453040;32;33727;-61
2022/04/19 10:37:15;;;;;;;7.68;4.70;;;;;;;14.77;32.30;99379.00;4448315;32;34033;-61
2022/04/19 10:39:47;;;;;;;7.90;4.40;;;;;;;14.44;32.09;99377.38;4447483;32;34012;-60
2022/04/19 10:42:47;;;;;;;7.50;4.60;;;;;;;14.39;32.74;99372.09;4449778;32;34159;-60
2022/04/19 10:45:14;;;;;;;6.80;4.22;;;;;;;14.29;33.06;99370.09;4444627;32;33753;-61
2022/04/19 10:47:51;;;;;;;7.10;4.90;;;;;;;13.99;32.98;99370.28;4453101;32;34648;-60
2022/04/19 10:50:28;;;;;;;7.75;5.00;;;;;;;13.10;35.25;99385.31;4455541;32;34582;-62
2022/04/19 10:53:06;;;;;;;8.23;4.80;;;;;;;13.03;35.11;99388.56;4429239;32;34297;-60
2022/04/19 10:55:39;;;;;;;8.85;5.25;;;;;;;12.79;34.94;99374.03;4449049;32;34121;-63
2022/04/19 10:58:18;;;;;;;8.23;4.62;;;;;;;11.88;36.50;99372.03;4437406;32;34006;-60
2022/04/19 11:00:54;;;;;;;8.45;5.45;;;;;;;11.25;38.83;99388.09;4452752;32;34021;-60
2022/04/19 11:03:33;;;;;;;7.82;5.32;;;;;;;11.25;42.06;99388.09;4443638;32;34342;-61
2022/04/19 11:06:04;;;;;;;10.18;5.65;;;;;;;11.69;41.11;99387.00;4452200;32;33652;-61
2022/04/19 11:08:33;;;;;;;8.90;5.40;;;;;;;12.06;39.22;99387.38;4436639;32;33840;-63
2022/04/19 11:11:03;;;;;;;8.05;5.28;;;;;;;11.53;41.29;99385.63;4450443;32;33723;-61
2022/04/19 11:13:33;;;;;;;12.02;5.05;;;;;;;11.36;43.75;99390.22;4449030;32;33343;-60
2022/04/19 11:16:07;;;;;;;8.55;5.35;;;;;;;12.03;40.74;99384.66;4438993;32;34405;-60
2022/04/19 11:18:41;;;;;;;8.43;4.93;;;;;;;11.84;41.55;99381.47;4452195;32;34730;-61
2022/04/19 11:21:54;;;;;;;7.93;5.18;;;;;;;11.60;41.75;99387.56;4448242;32;33745;-60
2022/04/19 11:24:59;;;;;;;10.57;5.65;;;;;;;11.40;45.39;99393.81;4453697;32;34159;-60
2022/04/19 11:27:52;;;;;;;10.38;5.78;;;;;;;11.35;42.96;99395.34;4430557;32;33720;-63
2022/04/19 11:30:25;;;;;;;7.32;4.82;;;;;;;11.47;41.32;99400.94;4423849;32;32358;-62
2022/04/19 11:32:55;;;;;;;7.32;4.82;;;;;;;10.84;43.25;99405.59;4442196;32;34485;-61
2022/04/19 11:35:23;;;;;;;7.47;5.32;;;;;;;10.73;46.28;99402.59;4425258;32;32645;-60
2022/04/19 11:37:50;;;;;;;8.52;5.07;;;;;;;10.26;47.02;99404.19;4451897;32;33579;-63
2022/04/19 11:48:50;;;;;;;12.18;7.55;;;;;;;9.63;51.58;99436.13;4451968;32;33563;-63
2022/04/19 11:51:20;;;;;;;12.77;7.62;;;;;;;9.10;55.52;99438.16;4447455;32;32809;-61
2022/04/19 11:53:52;;;;;;;11.30;8.13;;;;;;;8.99;56.51;99434.22;4431270;32;33097;-61
2022/04/19 11:56:20;;;;;;;12.98;7.12;;;;;;;8.62;56.70;99437.69;4453342;32;34137;-61
2022/04/19 11:58:52;;;;;;;11.00;7.47;;;;;;;8.94;58.35;99435.69;4451965;32;34375;-59
2022/04/19 12:01:20;;;;;;;9.48;6.53;;;;;;;9.50;58.89;99426.97;4451521;32;34583;-60
2022/04/19 12:03:48;;;;;;;13.82;6.47;;;;;;;9.28;56.47;99444.97;4446850;32;34712;-62
2022/04/19 12:06:18;;;;;;;12.88;7.50;;;;;;;9.04;57.56;99443.94;4444212;32;34752;-60
2022/04/19 12:08:49;;;;;;;13.73;6.90;;;;;;;8.95;58.24;99445.22;4452146;32;33558;-63
2022/04/19 12:11:25;;;;;;;10.95;7.65;;;;;;;9.39;57.41;99446.31;4441205;32;33958;-61
2022/04/19 12:13:53;;;;;;;15.10;8.80;;;;;;;9.65;60.09;99445.72;4436784;32;33827;-61
2022/04/19 12:16:33;;;;;;;10.38;7.47;;;;;;;9.96;56.96;99439.25;4451925;32;34139;-62
2022/04/19 12:19:03;;;;;;;10.45;6.68;;;;;;;9.11;57.59;99445.09;4443250;32;33650;-62
2022/04/19 12:21:40;;;;;;;10.85;7.53;;;;;;;8.62;60.93;99442.88;4452158;32;34528;-61
2022/04/19 12:24:32;;;;;;;11.25;8.15;;;;;;;8.80;59.45;99441.12;4445318;32;34690;-63